sensor_id;sensor_type;location;lat;lon;timestamp;P1;durP1;ratioP1;P2;durP2;ratioP2
72301;SDS011;60235;52.234;5.186;2023-02-26T00:01:26;5.35;;;1.00;;
72301;SDS011;60235;52.234;5.186;2023-02-26T00:03:53;3.30;;;0.50;;
72301;SDS011;60235;52.234;5.186;2023-02-26T00:06:20;6.95;;;0.60;;
72301;SDS011;60235;52.234;5.186;2023-02-26T00:08:46;4.40;;;0.73;;
72301;SDS011;60235;52.234;5.186;2023-02-26T00:11:13;7.10;;;1.00;;
72301;SDS011;60235;52.234;5.186;2023-02-26T00:13:40;4.32;;;0.98;;
72301;SDS011;60235;52.234;5.186;2023-02-26T00:16:39;4.30;;;0.68;;
72301;SDS011;60235;52.234;5.186;2023-02-26T00:19:00;3.60;;;1.02;;
72301;SDS011;60235;52.234;5.186;2023-02-26T00:21:27;4.55;;;0.80;;
72301;SDS011;60235;52.234;5.186;2023-02-26T00:23:54;3.88;;;0.80;;
72301;SDS011;60235;52.234;5.186;2023-02-26T00:26:20;8.07;;;1.02;;
72301;SDS011;60235;52.234;5.186;2023-02-26T00:28:47;6.32;;;0.75;;
72301;SDS011;60235;52.234;5.186;2023-02-26T00:31:14;5.00;;;0.65;;
72301;SDS011;60235;52.234;5.186;2023-02-26T00:33:41;7.97;;;1.45;;
72301;SDS011;60235;52.234;5.186;2023-02-26T00:38:34;3.80;;;0.50;;
72301;SDS011;60235;52.234;5.186;2023-02-26T00:41:01;4.75;;;0.80;;
72301;SDS011;60235;52.234;5.186;2023-02-26T00:43:27;8.10;;;0.80;;
72301;SDS011;60235;52.234;5.186;2023-02-26T00:48:29;4.18;;;0.63;;
72301;SDS011;60235;52.234;5.186;2023-02-26T00:51:12;4.40;;;0.70;;
72301;SDS011;60235;52.234;5.186;2023-02-26T00:56:06;5.05;;;0.98;;
72301;SDS011;60235;52.234;5.186;2023-02-26T00:58:32;5.65;;;0.73;;
72301;SDS011;60235;52.234;5.186;2023-02-26T01:00:59;4.53;;;1.00;;
72301;SDS011;60235;52.234;5.186;2023-02-26T01:03:25;2.58;;;0.50;;
72301;SDS011;60235;52.234;5.186;2023-02-26T01:05:51;4.10;;;0.77;;
72301;SDS011;60235;52.234;5.186;2023-02-26T01:08:18;2.40;;;0.50;;
72301;SDS011;60235;52.234;5.186;2023-02-26T01:10:46;5.72;;;1.08;;
72301;SDS011;60235;52.234;5.186;2023-02-26T01:13:12;6.07;;;1.15;;
72301;SDS011;60235;52.234;5.186;2023-02-26T01:15:39;3.65;;;0.77;;
72301;SDS011;60235;52.234;5.186;2023-02-26T01:20:53;3.38;;;0.60;;
72301;SDS011;60235;52.234;5.186;2023-02-26T01:23:22;1.98;;;0.40;;
72301;SDS011;60235;52.234;5.186;2023-02-26T01:25:50;4.68;;;0.65;;
72301;SDS011;60235;52.234;5.186;2023-02-26T01:28:19;2.38;;;0.50;;
72301;SDS011;60235;52.234;5.186;2023-02-26T01:30:45;1.92;;;0.50;;
72301;SDS011;60235;52.234;5.186;2023-02-26T01:35:50;8.40;;;1.00;;
72301;SDS011;60235;52.234;5.186;2023-02-26T01:38:26;3.80;;;0.52;;
72301;SDS011;60235;52.234;5.186;2023-02-26T01:48:36;5.45;;;1.05;;
72301;SDS011;60235;52.234;5.186;2023-02-26T01:51:03;3.75;;;0.57;;
72301;SDS011;60235;52.234;5.186;2023-02-26T01:53:29;5.80;;;1.02;;
72301;SDS011;60235;52.234;5.186;2023-02-26T01:56:17;4.75;;;0.77;;
72301;SDS011;60235;52.234;5.186;2023-02-26T01:58:43;9.05;;;0.95;;
72301;SDS011;60235;52.234;5.186;2023-02-26T02:01:11;7.22;;;1.10;;
72301;SDS011;60235;52.234;5.186;2023-02-26T02:03:37;4.15;;;0.50;;
72301;SDS011;60235;52.234;5.186;2023-02-26T02:06:05;5.13;;;0.80;;
72301;SDS011;60235;52.234;5.186;2023-02-26T02:08:32;2.83;;;0.57;;
72301;SDS011;60235;52.234;5.186;2023-02-26T02:10:59;4.22;;;0.60;;
72301;SDS011;60235;52.234;5.186;2023-02-26T02:18:48;4.85;;;0.68;;
72301;SDS011;60235;52.234;5.186;2023-02-26T02:21:28;6.10;;;0.80;;
72301;SDS011;60235;52.234;5.186;2023-02-26T02:37:04;4.43;;;0.98;;
72301;SDS011;60235;52.234;5.186;2023-02-26T02:39:33;2.88;;;0.85;;
72301;SDS011;60235;52.234;5.186;2023-02-26T02:42:22;6.53;;;0.70;;
72301;SDS011;60235;52.234;5.186;2023-02-26T02:44:48;3.00;;;0.50;;
72301;SDS011;60235;52.234;5.186;2023-02-26T02:47:15;3.05;;;0.65;;
72301;SDS011;60235;52.234;5.186;2023-02-26T02:49:47;2.67;;;0.30;;
72301;SDS011;60235;52.234;5.186;2023-02-26T02:52:16;4.00;;;0.52;;
72301;SDS011;60235;52.234;5.186;2023-02-26T02:59:41;3.80;;;0.65;;
72301;SDS011;60235;52.234;5.186;2023-02-26T03:04:34;3.72;;;0.50;;
72301;SDS011;60235;52.234;5.186;2023-02-26T03:07:00;3.75;;;0.55;;
72301;SDS011;60235;52.234;5.186;2023-02-26T03:09:26;5.88;;;0.85;;
72301;SDS011;60235;52.234;5.186;2023-02-26T03:11:52;3.25;;;0.50;;
72301;SDS011;60235;52.234;5.186;2023-02-26T03:14:18;5.57;;;0.75;;
72301;SDS011;60235;52.234;5.186;2023-02-26T03:21:56;2.47;;;0.70;;
72301;SDS011;60235;52.234;5.186;2023-02-26T03:24:28;4.00;;;0.40;;
72301;SDS011;60235;52.234;5.186;2023-02-26T03:26:59;2.05;;;0.30;;
72301;SDS011;60235;52.234;5.186;2023-02-26T03:31:59;2.20;;;0.35;;
72301;SDS011;60235;52.234;5.186;2023-02-26T03:36:56;2.63;;;0.43;;
72301;SDS011;60235;52.234;5.186;2023-02-26T03:39:30;4.07;;;0.60;;
72301;SDS011;60235;52.234;5.186;2023-02-26T03:41:58;3.95;;;0.52;;
72301;SDS011;60235;52.234;5.186;2023-02-26T03:44:31;6.20;;;0.70;;
72301;SDS011;60235;52.234;5.186;2023-02-26T03:46:59;5.25;;;0.73;;
72301;SDS011;60235;52.234;5.186;2023-02-26T03:51:53;2.30;;;0.50;;
72301;SDS011;60235;52.234;5.186;2023-02-26T03:54:21;2.90;;;0.55;;
72301;SDS011;60235;52.234;5.186;2023-02-26T03:56:47;8.98;;;1.58;;
72301;SDS011;60235;52.234;5.186;2023-02-26T03:59:14;2.28;;;0.47;;
72301;SDS011;60235;52.234;5.186;2023-02-26T04:01:48;4.90;;;0.50;;
72301;SDS011;60235;52.234;5.186;2023-02-26T04:06:48;4.50;;;0.73;;
72301;SDS011;60235;52.234;5.186;2023-02-26T04:09:17;2.72;;;0.50;;
72301;SDS011;60235;52.234;5.186;2023-02-26T04:11:43;6.15;;;1.20;;
72301;SDS011;60235;52.234;5.186;2023-02-26T04:14:10;5.57;;;0.90;;
72301;SDS011;60235;52.234;5.186;2023-02-26T04:16:36;3.53;;;0.52;;
72301;SDS011;60235;52.234;5.186;2023-02-26T04:19:02;2.10;;;0.50;;
72301;SDS011;60235;52.234;5.186;2023-02-26T04:21:28;3.00;;;0.40;;
72301;SDS011;60235;52.234;5.186;2023-02-26T04:23:54;3.50;;;0.47;;
72301;SDS011;60235;52.234;5.186;2023-02-26T04:26:20;4.03;;;0.75;;
72301;SDS011;60235;52.234;5.186;2023-02-26T04:28:46;7.30;;;0.75;;
72301;SDS011;60235;52.234;5.186;2023-02-26T04:31:12;5.07;;;0.77;;
72301;SDS011;60235;52.234;5.186;2023-02-26T04:33:38;2.53;;;0.80;;
72301;SDS011;60235;52.234;5.186;2023-02-26T04:36:04;2.17;;;0.40;;
72301;SDS011;60235;52.234;5.186;2023-02-26T04:38:30;6.43;;;1.05;;
72301;SDS011;60235;52.234;5.186;2023-02-26T04:40:56;3.00;;;0.47;;
72301;SDS011;60235;52.234;5.186;2023-02-26T04:43:22;4.53;;;0.50;;
72301;SDS011;60235;52.234;5.186;2023-02-26T04:45:48;2.20;;;0.40;;
72301;SDS011;60235;52.234;5.186;2023-02-26T04:48:14;2.50;;;0.60;;
72301;SDS011;60235;52.234;5.186;2023-02-26T04:50:40;5.60;;;0.50;;
72301;SDS011;60235;52.234;5.186;2023-02-26T04:53:06;1.95;;;0.35;;
72301;SDS011;60235;52.234;5.186;2023-02-26T04:55:36;4.03;;;0.55;;
72301;SDS011;60235;52.234;5.186;2023-02-26T04:58:02;3.08;;;1.10;;
72301;SDS011;60235;52.234;5.186;2023-02-26T05:00:29;2.13;;;0.50;;
72301;SDS011;60235;52.234;5.186;2023-02-26T05:02:55;4.13;;;0.47;;
72301;SDS011;60235;52.234;5.186;2023-02-26T05:05:21;3.70;;;0.70;;
72301;SDS011;60235;52.234;5.186;2023-02-26T05:07:47;4.13;;;0.98;;
72301;SDS011;60235;52.234;5.186;2023-02-26T05:10:13;3.72;;;0.63;;
72301;SDS011;60235;52.234;5.186;2023-02-26T05:12:39;3.13;;;0.50;;
72301;SDS011;60235;52.234;5.186;2023-02-26T05:15:05;6.13;;;0.52;;
72301;SDS011;60235;52.234;5.186;2023-02-26T05:17:31;2.33;;;0.45;;
72301;SDS011;60235;52.234;5.186;2023-02-26T05:19:57;5.90;;;0.75;;
72301;SDS011;60235;52.234;5.186;2023-02-26T05:22:23;6.13;;;0.77;;
72301;SDS011;60235;52.234;5.186;2023-02-26T05:24:49;4.60;;;0.75;;
72301;SDS011;60235;52.234;5.186;2023-02-26T05:27:15;3.90;;;0.63;;
72301;SDS011;60235;52.234;5.186;2023-02-26T05:29:41;4.63;;;0.50;;
72301;SDS011;60235;52.234;5.186;2023-02-26T05:32:08;3.80;;;0.63;;
72301;SDS011;60235;52.234;5.186;2023-02-26T05:34:35;1.95;;;0.30;;
72301;SDS011;60235;52.234;5.186;2023-02-26T05:37:01;1.98;;;0.43;;
72301;SDS011;60235;52.234;5.186;2023-02-26T05:39:27;1.35;;;0.40;;
72301;SDS011;60235;52.234;5.186;2023-02-26T05:41:53;4.93;;;0.60;;
72301;SDS011;60235;52.234;5.186;2023-02-26T05:44:20;4.65;;;0.50;;
72301;SDS011;60235;52.234;5.186;2023-02-26T05:46:46;9.07;;;0.75;;
72301;SDS011;60235;52.234;5.186;2023-02-26T05:49:12;6.60;;;0.70;;
72301;SDS011;60235;52.234;5.186;2023-02-26T05:51:38;2.72;;;0.63;;
72301;SDS011;60235;52.234;5.186;2023-02-26T05:54:06;1.92;;;0.45;;
72301;SDS011;60235;52.234;5.186;2023-02-26T05:56:32;4.93;;;0.70;;
72301;SDS011;60235;52.234;5.186;2023-02-26T05:58:58;2.22;;;0.38;;
72301;SDS011;60235;52.234;5.186;2023-02-26T06:01:24;3.95;;;0.35;;
72301;SDS011;60235;52.234;5.186;2023-02-26T06:03:50;3.08;;;0.40;;
72301;SDS011;60235;52.234;5.186;2023-02-26T06:06:16;3.35;;;0.57;;
72301;SDS011;60235;52.234;5.186;2023-02-26T06:08:43;2.47;;;0.40;;
72301;SDS011;60235;52.234;5.186;2023-02-26T06:11:09;5.65;;;0.85;;
72301;SDS011;60235;52.234;5.186;2023-02-26T06:13:36;3.03;;;0.70;;
72301;SDS011;60235;52.234;5.186;2023-02-26T06:16:02;2.92;;;0.93;;
72301;SDS011;60235;52.234;5.186;2023-02-26T06:18:28;5.10;;;0.70;;
72301;SDS011;60235;52.234;5.186;2023-02-26T06:20:56;5.88;;;0.52;;
72301;SDS011;60235;52.234;5.186;2023-02-26T06:23:22;5.65;;;0.70;;
72301;SDS011;60235;52.234;5.186;2023-02-26T06:25:49;5.05;;;0.70;;
72301;SDS011;60235;52.234;5.186;2023-02-26T06:28:16;5.22;;;0.80;;
72301;SDS011;60235;52.234;5.186;2023-02-26T06:30:42;4.75;;;1.30;;
72301;SDS011;60235;52.234;5.186;2023-02-26T06:33:08;9.27;;;2.10;;
72301;SDS011;60235;52.234;5.186;2023-02-26T06:35:34;12.85;;;3.95;;
72301;SDS011;60235;52.234;5.186;2023-02-26T06:38:00;11.90;;;3.42;;
72301;SDS011;60235;52.234;5.186;2023-02-26T06:40:26;10.30;;;2.42;;
72301;SDS011;60235;52.234;5.186;2023-02-26T06:42:52;6.60;;;1.70;;
72301;SDS011;60235;52.234;5.186;2023-02-26T06:45:18;6.72;;;1.80;;
72301;SDS011;60235;52.234;5.186;2023-02-26T06:47:44;7.57;;;1.90;;
72301;SDS011;60235;52.234;5.186;2023-02-26T06:50:11;6.07;;;1.20;;
72301;SDS011;60235;52.234;5.186;2023-02-26T06:52:37;3.70;;;0.93;;
72301;SDS011;60235;52.234;5.186;2023-02-26T06:55:03;3.60;;;0.88;;
72301;SDS011;60235;52.234;5.186;2023-02-26T06:57:29;3.38;;;1.10;;
72301;SDS011;60235;52.234;5.186;2023-02-26T06:59:55;5.93;;;1.13;;
72301;SDS011;60235;52.234;5.186;2023-02-26T07:02:22;5.82;;;1.20;;
72301;SDS011;60235;52.234;5.186;2023-02-26T07:04:48;4.18;;;1.10;;
72301;SDS011;60235;52.234;5.186;2023-02-26T07:07:14;7.78;;;1.63;;
72301;SDS011;60235;52.234;5.186;2023-02-26T07:09:40;7.00;;;1.63;;
72301;SDS011;60235;52.234;5.186;2023-02-26T07:12:06;5.28;;;1.25;;
72301;SDS011;60235;52.234;5.186;2023-02-26T07:14:32;2.22;;;0.63;;
72301;SDS011;60235;52.234;5.186;2023-02-26T07:16:59;4.30;;;0.98;;
72301;SDS011;60235;52.234;5.186;2023-02-26T07:19:25;5.97;;;0.93;;
72301;SDS011;60235;52.234;5.186;2023-02-26T07:21:52;5.70;;;0.93;;
72301;SDS011;60235;52.234;5.186;2023-02-26T07:24:19;5.47;;;0.55;;
72301;SDS011;60235;52.234;5.186;2023-02-26T07:26:45;4.90;;;0.95;;
72301;SDS011;60235;52.234;5.186;2023-02-26T07:29:11;2.78;;;1.10;;
72301;SDS011;60235;52.234;5.186;2023-02-26T07:31:38;4.38;;;1.00;;
72301;SDS011;60235;52.234;5.186;2023-02-26T07:34:04;8.02;;;1.98;;
72301;SDS011;60235;52.234;5.186;2023-02-26T07:36:30;8.00;;;1.85;;
72301;SDS011;60235;52.234;5.186;2023-02-26T07:38:56;5.38;;;1.15;;
72301;SDS011;60235;52.234;5.186;2023-02-26T07:41:22;3.78;;;0.98;;
72301;SDS011;60235;52.234;5.186;2023-02-26T07:43:48;3.05;;;0.93;;
72301;SDS011;60235;52.234;5.186;2023-02-26T07:46:14;7.38;;;1.20;;
72301;SDS011;60235;52.234;5.186;2023-02-26T07:48:40;4.22;;;1.15;;
72301;SDS011;60235;52.234;5.186;2023-02-26T07:51:07;8.82;;;1.05;;
72301;SDS011;60235;52.234;5.186;2023-02-26T07:53:34;5.53;;;0.70;;
72301;SDS011;60235;52.234;5.186;2023-02-26T07:56:00;2.92;;;0.68;;
72301;SDS011;60235;52.234;5.186;2023-02-26T07:58:26;4.82;;;0.70;;
72301;SDS011;60235;52.234;5.186;2023-02-26T08:00:52;2.88;;;0.47;;
72301;SDS011;60235;52.234;5.186;2023-02-26T08:03:19;1.73;;;0.38;;
72301;SDS011;60235;52.234;5.186;2023-02-26T08:05:45;4.22;;;0.65;;
72301;SDS011;60235;52.234;5.186;2023-02-26T08:08:11;9.35;;;1.23;;
72301;SDS011;60235;52.234;5.186;2023-02-26T08:10:37;3.42;;;0.45;;
72301;SDS011;60235;52.234;5.186;2023-02-26T08:13:05;6.60;;;1.20;;
72301;SDS011;60235;52.234;5.186;2023-02-26T08:15:31;7.25;;;0.88;;
72301;SDS011;60235;52.234;5.186;2023-02-26T08:17:57;3.80;;;1.08;;
72301;SDS011;60235;52.234;5.186;2023-02-26T08:20:23;4.95;;;0.70;;
72301;SDS011;60235;52.234;5.186;2023-02-26T08:22:49;6.32;;;1.15;;
72301;SDS011;60235;52.234;5.186;2023-02-26T08:25:16;3.72;;;0.88;;
72301;SDS011;60235;52.234;5.186;2023-02-26T08:27:42;6.45;;;1.00;;
72301;SDS011;60235;52.234;5.186;2023-02-26T08:30:08;2.13;;;0.57;;
72301;SDS011;60235;52.234;5.186;2023-02-26T08:32:35;3.75;;;0.50;;
72301;SDS011;60235;52.234;5.186;2023-02-26T08:35:03;4.18;;;0.93;;
72301;SDS011;60235;52.234;5.186;2023-02-26T08:37:29;3.90;;;0.45;;
72301;SDS011;60235;52.234;5.186;2023-02-26T08:39:55;1.55;;;0.43;;
72301;SDS011;60235;52.234;5.186;2023-02-26T08:42:21;1.85;;;0.35;;
72301;SDS011;60235;52.234;5.186;2023-02-26T08:44:47;3.72;;;0.35;;
72301;SDS011;60235;52.234;5.186;2023-02-26T08:47:13;7.32;;;1.27;;
72301;SDS011;60235;52.234;5.186;2023-02-26T08:49:39;4.30;;;0.90;;
72301;SDS011;60235;52.234;5.186;2023-02-26T08:52:05;4.45;;;0.85;;
72301;SDS011;60235;52.234;5.186;2023-02-26T08:54:31;1.27;;;0.20;;
72301;SDS011;60235;52.234;5.186;2023-02-26T08:56:57;7.43;;;0.52;;
72301;SDS011;60235;52.234;5.186;2023-02-26T08:59:23;5.00;;;1.20;;
72301;SDS011;60235;52.234;5.186;2023-02-26T09:01:49;3.00;;;0.77;;
72301;SDS011;60235;52.234;5.186;2023-02-26T09:04:15;5.30;;;0.70;;
72301;SDS011;60235;52.234;5.186;2023-02-26T09:06:42;2.92;;;0.57;;
72301;SDS011;60235;52.234;5.186;2023-02-26T09:09:08;3.15;;;0.70;;
72301;SDS011;60235;52.234;5.186;2023-02-26T09:11:34;2.95;;;0.90;;
72301;SDS011;60235;52.234;5.186;2023-02-26T09:14:00;3.17;;;0.57;;
72301;SDS011;60235;52.234;5.186;2023-02-26T09:16:27;4.20;;;1.00;;
72301;SDS011;60235;52.234;5.186;2023-02-26T09:18:54;6.68;;;0.85;;
72301;SDS011;60235;52.234;5.186;2023-02-26T09:21:20;5.90;;;0.90;;
72301;SDS011;60235;52.234;5.186;2023-02-26T09:23:46;3.90;;;0.70;;
72301;SDS011;60235;52.234;5.186;2023-02-26T09:26:12;2.22;;;0.63;;
72301;SDS011;60235;52.234;5.186;2023-02-26T09:28:38;1.88;;;0.57;;
72301;SDS011;60235;52.234;5.186;2023-02-26T09:31:05;3.70;;;0.68;;
72301;SDS011;60235;52.234;5.186;2023-02-26T09:36:00;2.15;;;0.50;;
72301;SDS011;60235;52.234;5.186;2023-02-26T09:38:26;2.80;;;0.70;;
72301;SDS011;60235;52.234;5.186;2023-02-26T09:41:02;2.83;;;0.82;;
72301;SDS011;60235;52.234;5.186;2023-02-26T09:43:34;4.40;;;1.05;;
72301;SDS011;60235;52.234;5.186;2023-02-26T09:46:08;4.95;;;0.65;;
72301;SDS011;60235;52.234;5.186;2023-02-26T09:48:35;2.28;;;0.40;;
72301;SDS011;60235;52.234;5.186;2023-02-26T09:51:02;4.90;;;0.50;;
72301;SDS011;60235;52.234;5.186;2023-02-26T09:53:38;2.28;;;0.60;;
72301;SDS011;60235;52.234;5.186;2023-02-26T09:56:22;4.80;;;0.73;;
72301;SDS011;60235;52.234;5.186;2023-02-26T09:58:49;4.15;;;0.70;;
72301;SDS011;60235;52.234;5.186;2023-02-26T10:01:26;3.58;;;0.57;;
72301;SDS011;60235;52.234;5.186;2023-02-26T10:06:24;2.50;;;0.40;;
72301;SDS011;60235;52.234;5.186;2023-02-26T10:13:48;2.10;;;0.70;;
72301;SDS011;60235;52.234;5.186;2023-02-26T10:16:19;3.13;;;0.80;;
72301;SDS011;60235;52.234;5.186;2023-02-26T10:18:50;5.68;;;0.98;;
72301;SDS011;60235;52.234;5.186;2023-02-26T10:21:27;3.20;;;0.60;;
72301;SDS011;60235;52.234;5.186;2023-02-26T10:23:56;4.18;;;0.70;;
72301;SDS011;60235;52.234;5.186;2023-02-26T10:26:31;5.60;;;0.68;;
72301;SDS011;60235;52.234;5.186;2023-02-26T10:34:16;2.20;;;0.57;;
72301;SDS011;60235;52.234;5.186;2023-02-26T10:36:48;2.63;;;0.63;;
72301;SDS011;60235;52.234;5.186;2023-02-26T10:39:26;2.67;;;0.30;;
72301;SDS011;60235;52.234;5.186;2023-02-26T10:41:54;4.20;;;0.57;;
72301;SDS011;60235;52.234;5.186;2023-02-26T10:44:31;3.92;;;0.55;;
72301;SDS011;60235;52.234;5.186;2023-02-26T10:47:05;3.80;;;0.85;;
72301;SDS011;60235;52.234;5.186;2023-02-26T10:52:12;3.05;;;0.90;;
72301;SDS011;60235;52.234;5.186;2023-02-26T10:57:17;3.22;;;0.40;;
72301;SDS011;60235;52.234;5.186;2023-02-26T10:59:44;6.00;;;0.90;;
72301;SDS011;60235;52.234;5.186;2023-02-26T11:02:22;3.58;;;0.65;;
72301;SDS011;60235;52.234;5.186;2023-02-26T11:04:50;2.03;;;0.43;;
72301;SDS011;60235;52.234;5.186;2023-02-26T11:07:16;2.28;;;0.63;;
72301;SDS011;60235;52.234;5.186;2023-02-26T11:09:43;3.58;;;0.60;;
72301;SDS011;60235;52.234;5.186;2023-02-26T11:17:09;6.47;;;0.60;;
72301;SDS011;60235;52.234;5.186;2023-02-26T11:19:36;4.55;;;0.70;;
72301;SDS011;60235;52.234;5.186;2023-02-26T11:22:03;4.20;;;0.65;;
72301;SDS011;60235;52.234;5.186;2023-02-26T11:24:35;3.63;;;1.15;;
72301;SDS011;60235;52.234;5.186;2023-02-26T11:27:02;4.68;;;0.70;;
72301;SDS011;60235;52.234;5.186;2023-02-26T11:29:48;2.08;;;0.47;;
72301;SDS011;60235;52.234;5.186;2023-02-26T11:32:16;2.13;;;0.50;;
72301;SDS011;60235;52.234;5.186;2023-02-26T11:34:46;5.63;;;0.80;;
72301;SDS011;60235;52.234;5.186;2023-02-26T11:37:28;5.85;;;0.70;;
72301;SDS011;60235;52.234;5.186;2023-02-26T11:39:56;5.75;;;0.85;;
72301;SDS011;60235;52.234;5.186;2023-02-26T11:42:22;3.90;;;0.60;;
72301;SDS011;60235;52.234;5.186;2023-02-26T11:44:49;2.78;;;0.38;;
72301;SDS011;60235;52.234;5.186;2023-02-26T11:47:34;3.35;;;0.98;;
72301;SDS011;60235;52.234;5.186;2023-02-26T11:50:00;3.50;;;0.98;;
72301;SDS011;60235;52.234;5.186;2023-02-26T11:52:42;2.22;;;0.60;;
72301;SDS011;60235;52.234;5.186;2023-02-26T11:55:29;6.32;;;1.00;;
72301;SDS011;60235;52.234;5.186;2023-02-26T11:57:56;4.35;;;1.00;;
72301;SDS011;60235;52.234;5.186;2023-02-26T12:00:30;4.45;;;0.70;;
72301;SDS011;60235;52.234;5.186;2023-02-26T12:03:16;1.95;;;0.47;;
72301;SDS011;60235;52.234;5.186;2023-02-26T12:05:42;3.45;;;0.55;;
72301;SDS011;60235;52.234;5.186;2023-02-26T12:08:15;1.60;;;0.30;;
72301;SDS011;60235;52.234;5.186;2023-02-26T12:11:32;3.80;;;0.60;;
72301;SDS011;60235;52.234;5.186;2023-02-26T12:13:37;3.13;;;0.65;;
72301;SDS011;60235;52.234;5.186;2023-02-26T12:18:49;1.98;;;0.38;;
72301;SDS011;60235;52.234;5.186;2023-02-26T12:21:23;7.13;;;0.82;;
72301;SDS011;60235;52.234;5.186;2023-02-26T12:24:36;4.72;;;0.82;;
72301;SDS011;60235;52.234;5.186;2023-02-26T12:26:39;4.28;;;0.60;;
72301;SDS011;60235;52.234;5.186;2023-02-26T12:29:16;2.90;;;0.60;;
72301;SDS011;60235;52.234;5.186;2023-02-26T12:32:05;3.25;;;0.60;;
72301;SDS011;60235;52.234;5.186;2023-02-26T12:42:21;2.80;;;0.50;;
72301;SDS011;60235;52.234;5.186;2023-02-26T12:44:54;3.30;;;0.60;;
72301;SDS011;60235;52.234;5.186;2023-02-26T12:50:20;5.05;;;0.52;;
72301;SDS011;60235;52.234;5.186;2023-02-26T12:56:03;2.92;;;0.52;;
72301;SDS011;60235;52.234;5.186;2023-02-26T13:14:08;1.23;;;0.40;;
72301;SDS011;60235;52.234;5.186;2023-02-26T13:21:56;5.70;;;0.75;;
72301;SDS011;60235;52.234;5.186;2023-02-26T13:24:39;5.00;;;0.60;;
72301;SDS011;60235;52.234;5.186;2023-02-26T13:27:06;1.25;;;0.30;;
72301;SDS011;60235;52.234;5.186;2023-02-26T13:29:45;6.13;;;0.75;;
72301;SDS011;60235;52.234;5.186;2023-02-26T13:32:22;2.97;;;0.70;;
72301;SDS011;60235;52.234;5.186;2023-02-26T13:34:57;1.85;;;0.50;;
72301;SDS011;60235;52.234;5.186;2023-02-26T13:37:25;3.30;;;0.60;;
72301;SDS011;60235;52.234;5.186;2023-02-26T13:42:27;1.75;;;0.47;;
72301;SDS011;60235;52.234;5.186;2023-02-26T13:45:00;4.65;;;0.60;;
72301;SDS011;60235;52.234;5.186;2023-02-26T13:52:48;2.67;;;0.60;;
72301;SDS011;60235;52.234;5.186;2023-02-26T13:55:33;4.63;;;0.88;;
72301;SDS011;60235;52.234;5.186;2023-02-26T13:57:55;3.90;;;0.60;;
72301;SDS011;60235;52.234;5.186;2023-02-26T14:00:56;4.13;;;0.70;;
72301;SDS011;60235;52.234;5.186;2023-02-26T14:08:24;2.17;;;0.50;;
72301;SDS011;60235;52.234;5.186;2023-02-26T14:13:37;3.10;;;0.45;;
72301;SDS011;60235;52.234;5.186;2023-02-26T14:16:11;5.43;;;0.70;;
72301;SDS011;60235;52.234;5.186;2023-02-26T14:18:41;3.17;;;0.50;;
72301;SDS011;60235;52.234;5.186;2023-02-26T14:23:49;4.40;;;0.50;;
72301;SDS011;60235;52.234;5.186;2023-02-26T14:26:17;1.73;;;0.40;;
72301;SDS011;60235;52.234;5.186;2023-02-26T14:28:58;1.83;;;0.50;;
72301;SDS011;60235;52.234;5.186;2023-02-26T14:34:23;4.05;;;0.50;;
72301;SDS011;60235;52.234;5.186;2023-02-26T14:36:51;2.20;;;0.52;;
72301;SDS011;60235;52.234;5.186;2023-02-26T14:39:28;2.38;;;0.65;;
72301;SDS011;60235;52.234;5.186;2023-02-26T14:41:58;6.68;;;0.73;;
72301;SDS011;60235;52.234;5.186;2023-02-26T14:44:29;3.85;;;0.60;;
72301;SDS011;60235;52.234;5.186;2023-02-26T14:46:57;3.88;;;0.90;;
72301;SDS011;60235;52.234;5.186;2023-02-26T14:49:32;3.80;;;0.60;;
72301;SDS011;60235;52.234;5.186;2023-02-26T14:54:37;4.03;;;0.85;;
72301;SDS011;60235;52.234;5.186;2023-02-26T15:12:24;3.95;;;0.60;;
72301;SDS011;60235;52.234;5.186;2023-02-26T15:17:43;4.18;;;0.90;;
72301;SDS011;60235;52.234;5.186;2023-02-26T15:27:52;3.88;;;0.68;;
72301;SDS011;60235;52.234;5.186;2023-02-26T15:30:18;5.68;;;1.40;;
72301;SDS011;60235;52.234;5.186;2023-02-26T15:32:44;3.47;;;0.90;;
72301;SDS011;60235;52.234;5.186;2023-02-26T15:35:20;4.88;;;0.90;;
72301;SDS011;60235;52.234;5.186;2023-02-26T15:37:47;7.93;;;0.95;;
72301;SDS011;60235;52.234;5.186;2023-02-26T15:40:14;3.28;;;0.65;;
72301;SDS011;60235;52.234;5.186;2023-02-26T15:42:40;3.70;;;0.63;;
72301;SDS011;60235;52.234;5.186;2023-02-26T15:45:17;3.28;;;0.80;;
72301;SDS011;60235;52.234;5.186;2023-02-26T15:47:45;3.97;;;1.00;;
72301;SDS011;60235;52.234;5.186;2023-02-26T15:50:13;4.93;;;0.98;;
72301;SDS011;60235;52.234;5.186;2023-02-26T15:52:39;4.15;;;0.73;;
72301;SDS011;60235;52.234;5.186;2023-02-26T15:55:06;4.07;;;1.00;;
72301;SDS011;60235;52.234;5.186;2023-02-26T15:57:32;4.07;;;0.80;;
72301;SDS011;60235;52.234;5.186;2023-02-26T16:00:04;5.13;;;1.27;;
72301;SDS011;60235;52.234;5.186;2023-02-26T16:02:32;4.78;;;1.15;;
72301;SDS011;60235;52.234;5.186;2023-02-26T16:04:58;6.25;;;1.35;;
72301;SDS011;60235;52.234;5.186;2023-02-26T16:07:26;5.05;;;1.42;;
72301;SDS011;60235;52.234;5.186;2023-02-26T16:09:53;7.95;;;1.05;;
72301;SDS011;60235;52.234;5.186;2023-02-26T16:12:33;8.38;;;1.05;;
72301;SDS011;60235;52.234;5.186;2023-02-26T16:15:02;9.00;;;1.02;;
72301;SDS011;60235;52.234;5.186;2023-02-26T16:17:30;6.25;;;1.23;;
72301;SDS011;60235;52.234;5.186;2023-02-26T16:19:58;6.05;;;0.93;;
72301;SDS011;60235;52.234;5.186;2023-02-26T16:25:38;6.53;;;0.95;;
72301;SDS011;60235;52.234;5.186;2023-02-26T16:27:37;4.90;;;0.90;;
72301;SDS011;60235;52.234;5.186;2023-02-26T16:30:04;5.22;;;1.23;;
72301;SDS011;60235;52.234;5.186;2023-02-26T16:32:32;3.97;;;0.73;;
72301;SDS011;60235;52.234;5.186;2023-02-26T16:34:59;5.15;;;0.80;;
72301;SDS011;60235;52.234;5.186;2023-02-26T16:40:04;4.03;;;1.00;;
72301;SDS011;60235;52.234;5.186;2023-02-26T16:42:35;3.08;;;0.80;;
72301;SDS011;60235;52.234;5.186;2023-02-26T16:47:28;10.50;;;1.92;;
72301;SDS011;60235;52.234;5.186;2023-02-26T16:49:55;5.22;;;0.88;;
72301;SDS011;60235;52.234;5.186;2023-02-26T16:52:22;4.57;;;0.90;;
72301;SDS011;60235;52.234;5.186;2023-02-26T16:54:59;7.63;;;0.90;;
72301;SDS011;60235;52.234;5.186;2023-02-26T16:57:30;5.85;;;1.20;;
72301;SDS011;60235;52.234;5.186;2023-02-26T17:00:00;5.82;;;1.30;;
72301;SDS011;60235;52.234;5.186;2023-02-26T17:02:31;4.63;;;0.90;;
72301;SDS011;60235;52.234;5.186;2023-02-26T17:05:02;4.10;;;0.70;;
72301;SDS011;60235;52.234;5.186;2023-02-26T17:07:33;4.35;;;0.90;;
72301;SDS011;60235;52.234;5.186;2023-02-26T17:10:17;6.40;;;0.90;;
72301;SDS011;60235;52.234;5.186;2023-02-26T17:12:48;4.50;;;0.93;;
72301;SDS011;60235;52.234;5.186;2023-02-26T17:15:16;9.05;;;1.30;;
72301;SDS011;60235;52.234;5.186;2023-02-26T17:17:43;4.35;;;1.00;;
72301;SDS011;60235;52.234;5.186;2023-02-26T17:20:09;7.32;;;1.17;;
72301;SDS011;60235;52.234;5.186;2023-02-26T17:22:35;5.00;;;1.20;;
72301;SDS011;60235;52.234;5.186;2023-02-26T17:25:01;6.88;;;1.27;;
72301;SDS011;60235;52.234;5.186;2023-02-26T17:27:36;4.40;;;1.13;;
72301;SDS011;60235;52.234;5.186;2023-02-26T17:30:04;5.55;;;1.27;;
72301;SDS011;60235;52.234;5.186;2023-02-26T17:32:30;9.43;;;1.30;;
72301;SDS011;60235;52.234;5.186;2023-02-26T17:34:57;8.25;;;1.52;;
72301;SDS011;60235;52.234;5.186;2023-02-26T17:37:23;9.10;;;1.70;;
72301;SDS011;60235;52.234;5.186;2023-02-26T17:39:50;6.25;;;1.10;;
72301;SDS011;60235;52.234;5.186;2023-02-26T17:42:17;4.72;;;1.10;;
72301;SDS011;60235;52.234;5.186;2023-02-26T17:44:45;5.70;;;1.40;;
72301;SDS011;60235;52.234;5.186;2023-02-26T17:47:17;6.30;;;1.45;;
72301;SDS011;60235;52.234;5.186;2023-02-26T17:49:44;7.50;;;1.70;;
72301;SDS011;60235;52.234;5.186;2023-02-26T17:52:10;3.42;;;1.00;;
72301;SDS011;60235;52.234;5.186;2023-02-26T17:54:37;7.90;;;1.40;;
72301;SDS011;60235;52.234;5.186;2023-02-26T17:57:03;6.80;;;1.20;;
72301;SDS011;60235;52.234;5.186;2023-02-26T17:59:29;4.90;;;0.93;;